sensor_id;sensor_type;location;lat;lon;timestamp;temperature;humidity
17202;DHT22;8717;53.588;10.176;2023-06-19T00:00:03;20.40;80.00
17202;DHT22;8717;53.588;10.176;2023-06-19T00:02:39;20.40;80.40
17202;DHT22;8717;53.588;10.176;2023-06-19T00:05:06;20.40;80.40
17202;DHT22;8717;53.588;10.176;2023-06-19T00:07:33;20.40;80.40
17202;DHT22;8717;53.588;10.176;2023-06-19T00:10:00;20.40;80.70
17202;DHT22;8717;53.588;10.176;2023-06-19T00:12:27;20.40;81.00
17202;DHT22;8717;53.588;10.176;2023-06-19T00:14:53;20.40;81.10
17202;DHT22;8717;53.588;10.176;2023-06-19T00:17:21;20.40;81.10
17202;DHT22;8717;53.588;10.176;2023-06-19T00:19:49;20.30;81.40
17202;DHT22;8717;53.588;10.176;2023-06-19T00:22:16;20.40;81.80
17202;DHT22;8717;53.588;10.176;2023-06-19T00:24:43;20.30;81.80
17202;DHT22;8717;53.588;10.176;2023-06-19T00:27:10;20.30;82.20
17202;DHT22;8717;53.588;10.176;2023-06-19T00:29:37;20.30;82.30
17202;DHT22;8717;53.588;10.176;2023-06-19T00:32:04;20.30;82.30
17202;DHT22;8717;53.588;10.176;2023-06-19T00:34:31;20.30;82.70
17202;DHT22;8717;53.588;10.176;2023-06-19T00:37:00;20.30;83.30
17202;DHT22;8717;53.588;10.176;2023-06-19T00:39:27;20.30;84.90
17202;DHT22;8717;53.588;10.176;2023-06-19T00:41:55;20.30;85.80
17202;DHT22;8717;53.588;10.176;2023-06-19T00:44:23;20.30;87.10
17202;DHT22;8717;53.588;10.176;2023-06-19T00:47:02;20.30;88.10
17202;DHT22;8717;53.588;10.176;2023-06-19T00:49:30;20.20;88.50
17202;DHT22;8717;53.588;10.176;2023-06-19T00:51:57;20.20;88.40
17202;DHT22;8717;53.588;10.176;2023-06-19T00:54:25;20.20;88.40
17202;DHT22;8717;53.588;10.176;2023-06-19T00:56:52;20.10;88.30
17202;DHT22;8717;53.588;10.176;2023-06-19T00:59:19;20.10;88.60
17202;DHT22;8717;53.588;10.176;2023-06-19T01:01:47;20.10;89.10
17202;DHT22;8717;53.588;10.176;2023-06-19T01:04:14;20.10;88.30
17202;DHT22;8717;53.588;10.176;2023-06-19T01:06:48;20.00;88.90
17202;DHT22;8717;53.588;10.176;2023-06-19T01:09:18;20.00;89.00
17202;DHT22;8717;53.588;10.176;2023-06-19T01:11:51;20.10;88.70
17202;DHT22;8717;53.588;10.176;2023-06-19T01:14:22;20.00;88.70
17202;DHT22;8717;53.588;10.176;2023-06-19T01:16:49;20.10;88.80
17202;DHT22;8717;53.588;10.176;2023-06-19T01:19:19;20.00;88.80
17202;DHT22;8717;53.588;10.176;2023-06-19T01:21:46;20.10;88.90
17202;DHT22;8717;53.588;10.176;2023-06-19T01:24:15;20.00;88.70
17202;DHT22;8717;53.588;10.176;2023-06-19T01:26:41;20.00;88.90
17202;DHT22;8717;53.588;10.176;2023-06-19T01:29:11;20.00;88.70
17202;DHT22;8717;53.588;10.176;2023-06-19T01:31:47;20.00;88.80
17202;DHT22;8717;53.588;10.176;2023-06-19T01:34:18;20.00;89.10
17202;DHT22;8717;53.588;10.176;2023-06-19T01:36:47;20.00;89.10
17202;DHT22;8717;53.588;10.176;2023-06-19T01:39:18;20.00;89.00
17202;DHT22;8717;53.588;10.176;2023-06-19T01:41:45;20.00;89.30
17202;DHT22;8717;53.588;10.176;2023-06-19T01:44:12;20.00;89.20
17202;DHT22;8717;53.588;10.176;2023-06-19T01:46:39;20.00;89.30
17202;DHT22;8717;53.588;10.176;2023-06-19T01:49:07;20.00;89.30
17202;DHT22;8717;53.588;10.176;2023-06-19T01:51:35;20.00;89.50
17202;DHT22;8717;53.588;10.176;2023-06-19T01:54:02;20.00;89.60
17202;DHT22;8717;53.588;10.176;2023-06-19T01:56:32;20.00;89.70
17202;DHT22;8717;53.588;10.176;2023-06-19T01:58:59;20.00;89.70
17202;DHT22;8717;53.588;10.176;2023-06-19T02:01:26;20.00;89.70
17202;DHT22;8717;53.588;10.176;2023-06-19T02:03:52;20.00;89.60
17202;DHT22;8717;53.588;10.176;2023-06-19T02:06:19;20.00;89.70
17202;DHT22;8717;53.588;10.176;2023-06-19T02:08:47;20.00;89.70
17202;DHT22;8717;53.588;10.176;2023-06-19T02:11:13;20.00;89.80
17202;DHT22;8717;53.588;10.176;2023-06-19T02:13:42;20.00;89.90
17202;DHT22;8717;53.588;10.176;2023-06-19T02:16:09;20.00;90.10
17202;DHT22;8717;53.588;10.176;2023-06-19T02:18:35;20.00;90.10
17202;DHT22;8717;53.588;10.176;2023-06-19T02:21:02;19.90;90.20
17202;DHT22;8717;53.588;10.176;2023-06-19T02:23:29;19.90;90.20
17202;DHT22;8717;53.588;10.176;2023-06-19T02:25:55;19.90;90.30
17202;DHT22;8717;53.588;10.176;2023-06-19T02:28:22;19.90;90.40
17202;DHT22;8717;53.588;10.176;2023-06-19T02:30:50;19.90;90.40
17202;DHT22;8717;53.588;10.176;2023-06-19T02:33:17;19.90;90.50
17202;DHT22;8717;53.588;10.176;2023-06-19T02:35:45;19.90;90.60
17202;DHT22;8717;53.588;10.176;2023-06-19T02:38:12;19.90;90.60
17202;DHT22;8717;53.588;10.176;2023-06-19T02:40:40;19.90;90.80
17202;DHT22;8717;53.588;10.176;2023-06-19T02:43:07;19.90;90.80
17202;DHT22;8717;53.588;10.176;2023-06-19T02:45:34;19.90;91.20
17202;DHT22;8717;53.588;10.176;2023-06-19T02:48:04;19.80;90.80
17202;DHT22;8717;53.588;10.176;2023-06-19T02:50:31;19.80;91.00
17202;DHT22;8717;53.588;10.176;2023-06-19T02:52:58;19.80;91.10
17202;DHT22;8717;53.588;10.176;2023-06-19T02:55:25;19.80;91.10
17202;DHT22;8717;53.588;10.176;2023-06-19T02:57:51;19.80;91.20
17202;DHT22;8717;53.588;10.176;2023-06-19T03:00:19;19.80;91.20
17202;DHT22;8717;53.588;10.176;2023-06-19T03:02:45;19.80;91.40
17202;DHT22;8717;53.588;10.176;2023-06-19T03:05:15;19.70;91.70
17202;DHT22;8717;53.588;10.176;2023-06-19T03:07:42;19.70;91.50
17202;DHT22;8717;53.588;10.176;2023-06-19T03:10:09;19.70;91.50
17202;DHT22;8717;53.588;10.176;2023-06-19T03:12:36;19.70;91.60
17202;DHT22;8717;53.588;10.176;2023-06-19T03:15:03;19.70;91.60
17202;DHT22;8717;53.588;10.176;2023-06-19T03:17:32;19.70;91.70
17202;DHT22;8717;53.588;10.176;2023-06-19T03:19:59;19.70;91.80
17202;DHT22;8717;53.588;10.176;2023-06-19T03:22:27;19.70;91.90
17202;DHT22;8717;53.588;10.176;2023-06-19T03:24:54;19.70;92.00
17202;DHT22;8717;53.588;10.176;2023-06-19T03:27:21;19.70;91.90
17202;DHT22;8717;53.588;10.176;2023-06-19T03:29:48;19.70;92.10
17202;DHT22;8717;53.588;10.176;2023-06-19T03:32:21;19.60;92.10
17202;DHT22;8717;53.588;10.176;2023-06-19T03:34:48;19.70;92.10
17202;DHT22;8717;53.588;10.176;2023-06-19T03:37:15;19.70;92.10
17202;DHT22;8717;53.588;10.176;2023-06-19T03:39:44;19.60;92.10
17202;DHT22;8717;53.588;10.176;2023-06-19T03:42:11;19.70;92.30
17202;DHT22;8717;53.588;10.176;2023-06-19T03:44:38;19.70;92.30
17202;DHT22;8717;53.588;10.176;2023-06-19T03:47:06;19.70;92.30
17202;DHT22;8717;53.588;10.176;2023-06-19T03:49:33;19.70;92.40
17202;DHT22;8717;53.588;10.176;2023-06-19T03:52:00;19.70;92.40
17202;DHT22;8717;53.588;10.176;2023-06-19T03:54:26;19.70;92.30
17202;DHT22;8717;53.588;10.176;2023-06-19T03:56:55;19.70;92.30
17202;DHT22;8717;53.588;10.176;2023-06-19T03:59:21;19.70;92.50
17202;DHT22;8717;53.588;10.176;2023-06-19T04:01:48;19.70;92.40
17202;DHT22;8717;53.588;10.176;2023-06-19T04:04:16;19.70;92.40
17202;DHT22;8717;53.588;10.176;2023-06-19T04:06:43;19.70;92.40
17202;DHT22;8717;53.588;10.176;2023-06-19T04:09:12;19.70;92.50
17202;DHT22;8717;53.588;10.176;2023-06-19T04:11:39;19.80;92.50
17202;DHT22;8717;53.588;10.176;2023-06-19T04:14:07;19.80;92.40
17202;DHT22;8717;53.588;10.176;2023-06-19T04:16:35;19.80;92.50
17202;DHT22;8717;53.588;10.176;2023-06-19T04:19:02;19.80;92.40
17202;DHT22;8717;53.588;10.176;2023-06-19T04:21:29;19.90;92.80
17202;DHT22;8717;53.588;10.176;2023-06-19T04:23:57;19.80;92.40
17202;DHT22;8717;53.588;10.176;2023-06-19T04:26:24;19.80;92.50
17202;DHT22;8717;53.588;10.176;2023-06-19T04:28:51;19.90;92.60
17202;DHT22;8717;53.588;10.176;2023-06-19T04:31:19;19.80;92.50
17202;DHT22;8717;53.588;10.176;2023-06-19T04:33:47;19.90;92.50
17202;DHT22;8717;53.588;10.176;2023-06-19T04:36:14;19.90;92.50
17202;DHT22;8717;53.588;10.176;2023-06-19T04:38:41;19.90;92.50
17202;DHT22;8717;53.588;10.176;2023-06-19T04:41:09;19.90;92.60
17202;DHT22;8717;53.588;10.176;2023-06-19T04:43:36;19.90;92.60
17202;DHT22;8717;53.588;10.176;2023-06-19T04:46:04;19.90;92.60
17202;DHT22;8717;53.588;10.176;2023-06-19T04:48:32;19.90;92.70
17202;DHT22;8717;53.588;10.176;2023-06-19T04:51:02;19.80;92.80
17202;DHT22;8717;53.588;10.176;2023-06-19T04:53:29;19.80;92.80
17202;DHT22;8717;53.588;10.176;2023-06-19T04:55:55;19.80;92.90
17202;DHT22;8717;53.588;10.176;2023-06-19T04:58:22;19.80;92.90
17202;DHT22;8717;53.588;10.176;2023-06-19T05:00:49;19.90;93.20
17202;DHT22;8717;53.588;10.176;2023-06-19T05:03:18;19.80;93.20
17202;DHT22;8717;53.588;10.176;2023-06-19T05:05:46;19.80;93.20
17202;DHT22;8717;53.588;10.176;2023-06-19T05:08:13;19.80;93.20
17202;DHT22;8717;53.588;10.176;2023-06-19T05:10:40;19.80;93.30
17202;DHT22;8717;53.588;10.176;2023-06-19T05:13:07;19.80;93.30
17202;DHT22;8717;53.588;10.176;2023-06-19T05:15:33;19.80;93.40
17202;DHT22;8717;53.588;10.176;2023-06-19T05:18:00;19.70;93.40
17202;DHT22;8717;53.588;10.176;2023-06-19T05:20:27;19.70;93.40
17202;DHT22;8717;53.588;10.176;2023-06-19T05:22:55;19.80;93.40
17202;DHT22;8717;53.588;10.176;2023-06-19T05:25:21;19.80;93.60
17202;DHT22;8717;53.588;10.176;2023-06-19T05:27:48;19.80;93.50
17202;DHT22;8717;53.588;10.176;2023-06-19T05:30:15;19.80;93.60
17202;DHT22;8717;53.588;10.176;2023-06-19T05:32:42;19.80;93.50
17202;DHT22;8717;53.588;10.176;2023-06-19T05:35:08;19.80;93.60
17202;DHT22;8717;53.588;10.176;2023-06-19T05:37:35;19.80;93.60
17202;DHT22;8717;53.588;10.176;2023-06-19T05:40:06;19.80;93.60
17202;DHT22;8717;53.588;10.176;2023-06-19T05:42:33;19.80;93.70
17202;DHT22;8717;53.588;10.176;2023-06-19T05:45:00;19.80;93.70
17202;DHT22;8717;53.588;10.176;2023-06-19T05:47:27;19.80;93.90
17202;DHT22;8717;53.588;10.176;2023-06-19T05:49:56;19.80;93.90
17202;DHT22;8717;53.588;10.176;2023-06-19T05:52:23;19.80;93.90
17202;DHT22;8717;53.588;10.176;2023-06-19T05:54:50;19.80;94.00
17202;DHT22;8717;53.588;10.176;2023-06-19T05:57:19;19.80;94.00
17202;DHT22;8717;53.588;10.176;2023-06-19T05:59:46;19.80;93.90
17202;DHT22;8717;53.588;10.176;2023-06-19T06:02:13;19.80;93.90
17202;DHT22;8717;53.588;10.176;2023-06-19T06:04:40;19.80;94.00
17202;DHT22;8717;53.588;10.176;2023-06-19T06:07:07;19.80;93.90
17202;DHT22;8717;53.588;10.176;2023-06-19T06:09:34;19.80;93.90
17202;DHT22;8717;53.588;10.176;2023-06-19T06:12:01;19.80;93.90
17202;DHT22;8717;53.588;10.176;2023-06-19T06:14:29;19.80;93.90
17202;DHT22;8717;53.588;10.176;2023-06-19T06:16:56;19.90;94.00
17202;DHT22;8717;53.588;10.176;2023-06-19T06:19:22;19.90;94.00
17202;DHT22;8717;53.588;10.176;2023-06-19T06:21:49;19.80;94.10
17202;DHT22;8717;53.588;10.176;2023-06-19T06:24:16;19.80;94.30
17202;DHT22;8717;53.588;10.176;2023-06-19T06:26:43;19.80;94.30
17202;DHT22;8717;53.588;10.176;2023-06-19T06:29:10;19.80;94.50
17202;DHT22;8717;53.588;10.176;2023-06-19T06:31:39;19.80;94.50
17202;DHT22;8717;53.588;10.176;2023-06-19T06:34:07;19.90;94.60
17202;DHT22;8717;53.588;10.176;2023-06-19T06:36:34;19.90;94.70
17202;DHT22;8717;53.588;10.176;2023-06-19T06:39:00;20.00;95.10
17202;DHT22;8717;53.588;10.176;2023-06-19T06:41:27;20.00;95.20
17202;DHT22;8717;53.588;10.176;2023-06-19T06:43:56;20.10;95.20
17202;DHT22;8717;53.588;10.176;2023-06-19T06:46:22;20.10;95.20
17202;DHT22;8717;53.588;10.176;2023-06-19T06:48:50;20.20;95.70
17202;DHT22;8717;53.588;10.176;2023-06-19T06:51:17;20.20;95.70
17202;DHT22;8717;53.588;10.176;2023-06-19T06:53:44;20.30;95.50
17202;DHT22;8717;53.588;10.176;2023-06-19T06:56:10;20.30;95.30
17202;DHT22;8717;53.588;10.176;2023-06-19T06:58:37;20.40;96.00
17202;DHT22;8717;53.588;10.176;2023-06-19T07:01:04;20.50;96.60
17202;DHT22;8717;53.588;10.176;2023-06-19T07:03:31;20.50;96.70
17202;DHT22;8717;53.588;10.176;2023-06-19T07:05:59;20.60;98.20
17202;DHT22;8717;53.588;10.176;2023-06-19T07:08:26;20.70;98.20
17202;DHT22;8717;53.588;10.176;2023-06-19T07:10:53;20.80;98.60
17202;DHT22;8717;53.588;10.176;2023-06-19T07:13:19;20.80;98.50
17202;DHT22;8717;53.588;10.176;2023-06-19T07:15:46;20.90;98.70
17202;DHT22;8717;53.588;10.176;2023-06-19T07:18:13;20.80;97.90
17202;DHT22;8717;53.588;10.176;2023-06-19T07:20:39;20.80;98.20
17202;DHT22;8717;53.588;10.176;2023-06-19T07:23:08;20.90;98.20
17202;DHT22;8717;53.588;10.176;2023-06-19T07:25:35;20.80;97.80
17202;DHT22;8717;53.588;10.176;2023-06-19T07:28:02;20.90;97.80
17202;DHT22;8717;53.588;10.176;2023-06-19T07:30:30;20.80;98.10
17202;DHT22;8717;53.588;10.176;2023-06-19T07:32:56;20.80;97.80
17202;DHT22;8717;53.588;10.176;2023-06-19T07:35:23;20.90;97.50
17202;DHT22;8717;53.588;10.176;2023-06-19T07:37:50;20.90;97.20
17202;DHT22;8717;53.588;10.176;2023-06-19T07:40:18;21.00;97.10
17202;DHT22;8717;53.588;10.176;2023-06-19T07:42:44;21.00;97.00
17202;DHT22;8717;53.588;10.176;2023-06-19T07:45:12;21.00;97.50
17202;DHT22;8717;53.588;10.176;2023-06-19T07:47:39;21.10;97.80
17202;DHT22;8717;53.588;10.176;2023-06-19T07:50:06;21.10;97.10
17202;DHT22;8717;53.588;10.176;2023-06-19T07:52:33;21.20;96.80
17202;DHT22;8717;53.588;10.176;2023-06-19T07:55:00;21.20;96.60
17202;DHT22;8717;53.588;10.176;2023-06-19T07:57:28;21.20;96.50
17202;DHT22;8717;53.588;10.176;2023-06-19T07:59:55;21.30;96.20
17202;DHT22;8717;53.588;10.176;2023-06-19T08:02:22;21.30;96.30
17202;DHT22;8717;53.588;10.176;2023-06-19T08:04:48;21.30;96.10
17202;DHT22;8717;53.588;10.176;2023-06-19T08:07:16;21.40;96.00
17202;DHT22;8717;53.588;10.176;2023-06-19T08:09:43;21.50;95.80
17202;DHT22;8717;53.588;10.176;2023-06-19T08:12:10;21.50;95.60
17202;DHT22;8717;53.588;10.176;2023-06-19T08:14:38;21.60;95.60
17202;DHT22;8717;53.588;10.176;2023-06-19T08:17:05;21.60;95.70
17202;DHT22;8717;53.588;10.176;2023-06-19T08:19:32;21.80;95.70
17202;DHT22;8717;53.588;10.176;2023-06-19T08:21:58;22.00;95.80
17202;DHT22;8717;53.588;10.176;2023-06-19T08:24:25;22.50;95.90
17202;DHT22;8717;53.588;10.176;2023-06-19T08:26:51;22.90;95.00
17202;DHT22;8717;53.588;10.176;2023-06-19T08:29:18;23.40;94.30
17202;DHT22;8717;53.588;10.176;2023-06-19T08:31:46;23.80;93.50
17202;DHT22;8717;53.588;10.176;2023-06-19T08:34:13;24.20;93.20
17202;DHT22;8717;53.588;10.176;2023-06-19T08:36:40;24.60;92.50
17202;DHT22;8717;53.588;10.176;2023-06-19T08:39:06;24.90;92.10
17202;DHT22;8717;53.588;10.176;2023-06-19T08:41:34;25.10;91.30
17202;DHT22;8717;53.588;10.176;2023-06-19T08:44:01;25.20;90.00
17202;DHT22;8717;53.588;10.176;2023-06-19T08:46:28;25.30;89.40
17202;DHT22;8717;53.588;10.176;2023-06-19T08:48:56;25.40;89.60
17202;DHT22;8717;53.588;10.176;2023-06-19T08:51:26;25.40;88.00
17202;DHT22;8717;53.588;10.176;2023-06-19T08:53:56;25.60;88.70
17202;DHT22;8717;53.588;10.176;2023-06-19T08:56:23;25.70;88.20
17202;DHT22;8717;53.588;10.176;2023-06-19T08:58:50;26.00;86.60
17202;DHT22;8717;53.588;10.176;2023-06-19T09:01:18;26.30;86.40
17202;DHT22;8717;53.588;10.176;2023-06-19T09:03:45;26.80;83.80
17202;DHT22;8717;53.588;10.176;2023-06-19T09:06:16;27.20;84.00
17202;DHT22;8717;53.588;10.176;2023-06-19T09:08:42;27.60;83.40
17202;DHT22;8717;53.588;10.176;2023-06-19T09:11:11;27.90;81.10
17202;DHT22;8717;53.588;10.176;2023-06-19T09:13:37;28.20;80.40
17202;DHT22;8717;53.588;10.176;2023-06-19T09:16:05;28.40;79.90
17202;DHT22;8717;53.588;10.176;2023-06-19T09:18:42;28.60;77.20
17202;DHT22;8717;53.588;10.176;2023-06-19T09:21:16;28.70;76.50
17202;DHT22;8717;53.588;10.176;2023-06-19T09:23:44;28.60;74.50
17202;DHT22;8717;53.588;10.176;2023-06-19T09:26:14;28.60;74.70
17202;DHT22;8717;53.588;10.176;2023-06-19T09:28:41;28.50;75.50
17202;DHT22;8717;53.588;10.176;2023-06-19T09:31:08;28.50;76.20
17202;DHT22;8717;53.588;10.176;2023-06-19T09:33:36;28.50;75.60
17202;DHT22;8717;53.588;10.176;2023-06-19T09:36:04;28.60;74.90
17202;DHT22;8717;53.588;10.176;2023-06-19T09:38:34;28.60;75.40
17202;DHT22;8717;53.588;10.176;2023-06-19T09:41:02;28.80;73.20
17202;DHT22;8717;53.588;10.176;2023-06-19T09:43:34;29.00;72.70
17202;DHT22;8717;53.588;10.176;2023-06-19T09:46:03;29.10;71.90
17202;DHT22;8717;53.588;10.176;2023-06-19T09:48:31;29.40;71.70
17202;DHT22;8717;53.588;10.176;2023-06-19T09:51:07;29.50;69.40
17202;DHT22;8717;53.588;10.176;2023-06-19T09:53:36;29.60;69.60
17202;DHT22;8717;53.588;10.176;2023-06-19T09:56:03;29.70;67.70
17202;DHT22;8717;53.588;10.176;2023-06-19T09:58:30;29.60;67.70
17202;DHT22;8717;53.588;10.176;2023-06-19T10:00:58;29.60;67.60
17202;DHT22;8717;53.588;10.176;2023-06-19T10:03:30;29.40;67.00
17202;DHT22;8717;53.588;10.176;2023-06-19T10:05:58;29.40;66.80
17202;DHT22;8717;53.588;10.176;2023-06-19T10:08:29;29.30;67.70
17202;DHT22;8717;53.588;10.176;2023-06-19T10:10:58;29.30;68.40
17202;DHT22;8717;53.588;10.176;2023-06-19T10:13:31;29.30;67.20
17202;DHT22;8717;53.588;10.176;2023-06-19T10:15:58;29.30;68.40
17202;DHT22;8717;53.588;10.176;2023-06-19T10:18:25;29.30;67.30
17202;DHT22;8717;53.588;10.176;2023-06-19T10:20:53;29.30;66.60
17202;DHT22;8717;53.588;10.176;2023-06-19T10:23:22;29.30;66.80
17202;DHT22;8717;53.588;10.176;2023-06-19T10:25:59;29.30;66.90
17202;DHT22;8717;53.588;10.176;2023-06-19T10:28:28;29.30;66.60
17202;DHT22;8717;53.588;10.176;2023-06-19T10:30:55;29.40;67.20
17202;DHT22;8717;53.588;10.176;2023-06-19T10:33:24;29.40;65.90
17202;DHT22;8717;53.588;10.176;2023-06-19T10:35:51;29.50;66.50
17202;DHT22;8717;53.588;10.176;2023-06-19T10:38:18;29.60;65.80
17202;DHT22;8717;53.588;10.176;2023-06-19T10:40:45;29.60;65.60
17202;DHT22;8717;53.588;10.176;2023-06-19T10:43:19;29.70;66.00
17202;DHT22;8717;53.588;10.176;2023-06-19T10:45:46;29.50;64.70
17202;DHT22;8717;53.588;10.176;2023-06-19T10:48:18;29.50;65.30
17202;DHT22;8717;53.588;10.176;2023-06-19T10:50:47;29.40;65.50
17202;DHT22;8717;53.588;10.176;2023-06-19T10:53:23;29.20;65.40
17202;DHT22;8717;53.588;10.176;2023-06-19T10:55:54;29.30;66.30
17202;DHT22;8717;53.588;10.176;2023-06-19T10:58:22;29.40;66.40
17202;DHT22;8717;53.588;10.176;2023-06-19T11:00:49;29.60;66.20
17202;DHT22;8717;53.588;10.176;2023-06-19T11:03:16;29.60;65.00
17202;DHT22;8717;53.588;10.176;2023-06-19T11:05:44;29.60;65.50
17202;DHT22;8717;53.588;10.176;2023-06-19T11:08:10;29.70;65.60
17202;DHT22;8717;53.588;10.176;2023-06-19T11:10:43;29.80;65.10
17202;DHT22;8717;53.588;10.176;2023-06-19T11:13:14;29.90;65.40
17202;DHT22;8717;53.588;10.176;2023-06-19T11:15:42;30.00;65.10
17202;DHT22;8717;53.588;10.176;2023-06-19T11:18:09;30.20;64.70
17202;DHT22;8717;53.588;10.176;2023-06-19T11:20:43;30.40;65.00
17202;DHT22;8717;53.588;10.176;2023-06-19T11:23:10;30.60;64.80
17202;DHT22;8717;53.588;10.176;2023-06-19T11:25:38;30.80;64.60
17202;DHT22;8717;53.588;10.176;2023-06-19T11:28:05;31.00;62.90
17202;DHT22;8717;53.588;10.176;2023-06-19T11:30:32;31.30;62.30
17202;DHT22;8717;53.588;10.176;2023-06-19T11:33:00;31.40;60.70
17202;DHT22;8717;53.588;10.176;2023-06-19T11:35:32;31.60;62.00
17202;DHT22;8717;53.588;10.176;2023-06-19T11:38:01;31.80;61.60
17202;DHT22;8717;53.588;10.176;2023-06-19T11:40:28;32.00;61.50
17202;DHT22;8717;53.588;10.176;2023-06-19T11:43:05;32.30;60.70
17202;DHT22;8717;53.588;10.176;2023-06-19T11:45:32;32.50;60.50
17202;DHT22;8717;53.588;10.176;2023-06-19T11:47:58;32.60;58.70
17202;DHT22;8717;53.588;10.176;2023-06-19T11:50:28;32.70;58.40
17202;DHT22;8717;53.588;10.176;2023-06-19T11:52:54;32.60;56.80
17202;DHT22;8717;53.588;10.176;2023-06-19T11:55:22;32.60;57.30
17202;DHT22;8717;53.588;10.176;2023-06-19T11:57:49;32.70;57.60
17202;DHT22;8717;53.588;10.176;2023-06-19T12:00:16;32.90;58.00
17202;DHT22;8717;53.588;10.176;2023-06-19T12:02:44;33.10;58.00
17202;DHT22;8717;53.588;10.176;2023-06-19T12:05:12;33.30;56.20
17202;DHT22;8717;53.588;10.176;2023-06-19T12:07:41;33.40;56.00
17202;DHT22;8717;53.588;10.176;2023-06-19T12:10:08;33.50;55.30
17202;DHT22;8717;53.588;10.176;2023-06-19T12:12:37;33.60;55.80
17202;DHT22;8717;53.588;10.176;2023-06-19T12:15:05;33.70;55.50
17202;DHT22;8717;53.588;10.176;2023-06-19T12:17:32;33.70;55.50
17202;DHT22;8717;53.588;10.176;2023-06-19T12:19:59;33.80;55.90
17202;DHT22;8717;53.588;10.176;2023-06-19T12:22:26;33.90;55.50
17202;DHT22;8717;53.588;10.176;2023-06-19T12:24:55;33.90;55.20
17202;DHT22;8717;53.588;10.176;2023-06-19T12:27:21;34.00;54.70
17202;DHT22;8717;53.588;10.176;2023-06-19T12:29:48;33.90;54.30
17202;DHT22;8717;53.588;10.176;2023-06-19T12:32:15;33.80;54.10
17202;DHT22;8717;53.588;10.176;2023-06-19T12:34:41;33.60;54.50
17202;DHT22;8717;53.588;10.176;2023-06-19T12:37:12;33.40;54.50
17202;DHT22;8717;53.588;10.176;2023-06-19T12:39:40;33.20;54.70
17202;DHT22;8717;53.588;10.176;2023-06-19T12:42:08;33.10;55.20
17202;DHT22;8717;53.588;10.176;2023-06-19T12:44:37;32.90;55.00
17202;DHT22;8717;53.588;10.176;2023-06-19T12:47:04;32.80;55.30
17202;DHT22;8717;53.588;10.176;2023-06-19T12:49:31;32.60;55.30
17202;DHT22;8717;53.588;10.176;2023-06-19T12:51:58;32.40;55.70
17202;DHT22;8717;53.588;10.176;2023-06-19T12:54:25;32.30;55.90
17202;DHT22;8717;53.588;10.176;2023-06-19T12:56:52;32.20;56.30
17202;DHT22;8717;53.588;10.176;2023-06-19T12:59:20;32.20;56.70
17202;DHT22;8717;53.588;10.176;2023-06-19T13:01:47;32.30;56.90
17202;DHT22;8717;53.588;10.176;2023-06-19T13:04:14;32.40;56.90
17202;DHT22;8717;53.588;10.176;2023-06-19T13:06:40;32.50;56.90
17202;DHT22;8717;53.588;10.176;2023-06-19T13:09:07;32.50;56.80
17202;DHT22;8717;53.588;10.176;2023-06-19T13:11:34;32.50;56.80
17202;DHT22;8717;53.588;10.176;2023-06-19T13:14:01;32.40;57.10
17202;DHT22;8717;53.588;10.176;2023-06-19T13:16:30;32.30;57.30
17202;DHT22;8717;53.588;10.176;2023-06-19T13:18:57;32.20;57.40
17202;DHT22;8717;53.588;10.176;2023-06-19T13:21:24;32.10;58.00
17202;DHT22;8717;53.588;10.176;2023-06-19T13:23:50;32.00;58.10
17202;DHT22;8717;53.588;10.176;2023-06-19T13:26:17;32.00;58.30
17202;DHT22;8717;53.588;10.176;2023-06-19T13:28:43;32.00;58.20
17202;DHT22;8717;53.588;10.176;2023-06-19T13:31:10;32.10;58.40
17202;DHT22;8717;53.588;10.176;2023-06-19T13:33:38;32.10;58.40
17202;DHT22;8717;53.588;10.176;2023-06-19T13:36:05;32.10;58.40
17202;DHT22;8717;53.588;10.176;2023-06-19T13:38:31;32.10;58.60
17202;DHT22;8717;53.588;10.176;2023-06-19T13:40:58;32.10;58.80
17202;DHT22;8717;53.588;10.176;2023-06-19T13:43:25;32.20;58.90
17202;DHT22;8717;53.588;10.176;2023-06-19T13:45:51;32.40;58.60
17202;DHT22;8717;53.588;10.176;2023-06-19T13:48:18;32.50;58.50
17202;DHT22;8717;53.588;10.176;2023-06-19T13:50:46;32.60;58.10
17202;DHT22;8717;53.588;10.176;2023-06-19T13:53:13;32.70;57.80
17202;DHT22;8717;53.588;10.176;2023-06-19T13:55:40;32.70;57.80
17202;DHT22;8717;53.588;10.176;2023-06-19T13:58:06;32.80;57.40
17202;DHT22;8717;53.588;10.176;2023-06-19T14:00:33;32.80;57.60
17202;DHT22;8717;53.588;10.176;2023-06-19T14:03:02;32.80;57.70
17202;DHT22;8717;53.588;10.176;2023-06-19T14:05:31;32.90;57.90
17202;DHT22;8717;53.588;10.176;2023-06-19T14:08:00;32.90;57.90
17202;DHT22;8717;53.588;10.176;2023-06-19T14:10:28;32.90;58.50
17202;DHT22;8717;53.588;10.176;2023-06-19T14:12:55;33.00;58.80
17202;DHT22;8717;53.588;10.176;2023-06-19T14:15:22;32.90;59.00
17202;DHT22;8717;53.588;10.176;2023-06-19T14:17:48;32.80;59.30
17202;DHT22;8717;53.588;10.176;2023-06-19T14:20:15;32.60;59.60
17202;DHT22;8717;53.588;10.176;2023-06-19T14:22:41;32.50;59.90
17202;DHT22;8717;53.588;10.176;2023-06-19T14:25:10;32.50;60.10
17202;DHT22;8717;53.588;10.176;2023-06-19T14:27:37;32.30;60.60
17202;DHT22;8717;53.588;10.176;2023-06-19T14:30:05;32.30;61.20
17202;DHT22;8717;53.588;10.176;2023-06-19T14:32:34;32.20;61.20
17202;DHT22;8717;53.588;10.176;2023-06-19T14:35:01;32.10;61.00
17202;DHT22;8717;53.588;10.176;2023-06-19T14:37:28;31.90;61.10
17202;DHT22;8717;53.588;10.176;2023-06-19T14:39:54;31.90;61.80
17202;DHT22;8717;53.588;10.176;2023-06-19T14:42:22;31.70;62.40
17202;DHT22;8717;53.588;10.176;2023-06-19T14:44:49;31.50;63.10
17202;DHT22;8717;53.588;10.176;2023-06-19T14:47:16;31.40;63.60
17202;DHT22;8717;53.588;10.176;2023-06-19T14:49:43;31.30;64.20
17202;DHT22;8717;53.588;10.176;2023-06-19T14:52:09;31.30;64.60
17202;DHT22;8717;53.588;10.176;2023-06-19T14:54:36;31.20;64.90
17202;DHT22;8717;53.588;10.176;2023-06-19T14:57:03;31.20;65.10
17202;DHT22;8717;53.588;10.176;2023-06-19T14:59:34;31.10;65.40
17202;DHT22;8717;53.588;10.176;2023-06-19T15:02:01;31.00;66.10
17202;DHT22;8717;53.588;10.176;2023-06-19T15:04:28;30.90;66.30
17202;DHT22;8717;53.588;10.176;2023-06-19T15:06:55;30.70;66.40
17202;DHT22;8717;53.588;10.176;2023-06-19T15:09:22;30.50;66.70
17202;DHT22;8717;53.588;10.176;2023-06-19T15:11:49;30.30;67.50
17202;DHT22;8717;53.588;10.176;2023-06-19T15:14:15;30.00;68.00
17202;DHT22;8717;53.588;10.176;2023-06-19T15:16:44;29.80;68.40
17202;DHT22;8717;53.588;10.176;2023-06-19T15:19:10;29.70;68.90
17202;DHT22;8717;53.588;10.176;2023-06-19T15:21:37;29.50;69.10
17202;DHT22;8717;53.588;10.176;2023-06-19T15:24:04;29.30;69.40
17202;DHT22;8717;53.588;10.176;2023-06-19T15:26:31;29.20;70.00
17202;DHT22;8717;53.588;10.176;2023-06-19T15:28:58;29.20;70.40
17202;DHT22;8717;53.588;10.176;2023-06-19T15:31:26;29.20;70.40